sensor_id;sensor_type;location;lat;lon;timestamp;pressure;altitude;pressure_sealevel;temperature;humidity
58771;BME280;44539;42.962;1.596;2023-04-07T06:43:43;97156.53;;;1.50;100.00
58771;BME280;44539;42.962;1.596;2023-04-07T06:46:09;97153.91;;;1.83;100.00
58771;BME280;44539;42.962;1.596;2023-04-07T06:48:34;97150.53;;;2.04;100.00
58771;BME280;44539;42.962;1.596;2023-04-07T06:51:00;97145.25;;;2.15;100.00
58771;BME280;44539;42.962;1.596;2023-04-07T06:53:25;97150.16;;;2.20;100.00
58771;BME280;44539;42.962;1.596;2023-04-07T06:55:50;97153.22;;;2.25;100.00
58771;BME280;44539;42.962;1.596;2023-04-07T06:58:16;97162.63;;;2.60;100.00
58771;BME280;44539;42.962;1.596;2023-04-07T07:00:41;97160.81;;;2.72;100.00
58771;BME280;44539;42.962;1.596;2023-04-07T07:03:07;97158.41;;;2.69;100.00
58771;BME280;44539;42.962;1.596;2023-04-07T07:05:32;97156.16;;;2.75;100.00
58771;BME280;44539;42.962;1.596;2023-04-07T07:07:57;97162.28;;;2.85;100.00
58771;BME280;44539;42.962;1.596;2023-04-07T07:10:23;97160.19;;;3.00;100.00
58771;BME280;44539;42.962;1.596;2023-04-07T07:12:50;97155.75;;;3.22;100.00
58771;BME280;44539;42.962;1.596;2023-04-07T07:15:15;97156.53;;;3.34;100.00
58771;BME280;44539;42.962;1.596;2023-04-07T07:17:41;97148.31;;;3.48;100.00
58771;BME280;44539;42.962;1.596;2023-04-07T07:20:07;97149.78;;;3.72;100.00
58771;BME280;44539;42.962;1.596;2023-04-07T07:22:33;97136.59;;;3.93;100.00
58771;BME280;44539;42.962;1.596;2023-04-07T07:24:58;97144.00;;;4.18;100.00
58771;BME280;44539;42.962;1.596;2023-04-07T07:27:23;97135.69;;;4.52;100.00
58771;BME280;44539;42.962;1.596;2023-04-07T07:29:49;97134.47;;;4.76;100.00
58771;BME280;44539;42.962;1.596;2023-04-07T07:32:15;97130.00;;;5.05;100.00
58771;BME280;44539;42.962;1.596;2023-04-07T07:34:40;97138.13;;;5.31;98.93
58771;BME280;44539;42.962;1.596;2023-04-07T07:37:05;97128.22;;;5.53;100.00
58771;BME280;44539;42.962;1.596;2023-04-07T07:39:31;97130.41;;;5.95;94.57
58771;BME280;44539;42.962;1.596;2023-04-07T07:41:56;97123.63;;;6.20;89.05
58771;BME280;44539;42.962;1.596;2023-04-07T07:44:22;97121.34;;;6.53;89.28
58771;BME280;44539;42.962;1.596;2023-04-07T07:46:48;97121.78;;;6.66;86.65
58771;BME280;44539;42.962;1.596;2023-04-07T07:49:14;97120.22;;;7.00;83.53
58771;BME280;44539;42.962;1.596;2023-04-07T07:51:39;97115.22;;;7.14;81.82
58771;BME280;44539;42.962;1.596;2023-04-07T07:54:05;97116.16;;;7.31;86.79
58771;BME280;44539;42.962;1.596;2023-04-07T07:56:30;97114.53;;;7.65;77.97
58771;BME280;44539;42.962;1.596;2023-04-07T07:58:56;97110.63;;;7.77;76.58
58771;BME280;44539;42.962;1.596;2023-04-07T08:01:21;97103.25;;;7.97;78.34
58771;BME280;44539;42.962;1.596;2023-04-07T08:03:47;97106.94;;;8.12;77.14
58771;BME280;44539;42.962;1.596;2023-04-07T08:06:12;97102.91;;;8.43;71.54
58771;BME280;44539;42.962;1.596;2023-04-07T08:08:38;97105.09;;;8.64;69.46
58771;BME280;44539;42.962;1.596;2023-04-07T08:11:03;97111.41;;;8.79;71.55
58771;BME280;44539;42.962;1.596;2023-04-07T08:13:28;97109.09;;;8.92;70.85
58771;BME280;44539;42.962;1.596;2023-04-07T08:15:54;97104.63;;;9.01;69.72
58771;BME280;44539;42.962;1.596;2023-04-07T08:18:19;97104.44;;;9.19;68.60
58771;BME280;44539;42.962;1.596;2023-04-07T08:20:45;97103.59;;;9.27;68.23
58771;BME280;44539;42.962;1.596;2023-04-07T08:23:11;97107.56;;;9.39;65.68
58771;BME280;44539;42.962;1.596;2023-04-07T08:25:36;97101.72;;;9.52;65.47
58771;BME280;44539;42.962;1.596;2023-04-07T08:28:04;97103.00;;;9.64;66.47
58771;BME280;44539;42.962;1.596;2023-04-07T08:30:30;97108.78;;;9.76;65.53
58771;BME280;44539;42.962;1.596;2023-04-07T08:32:55;97097.75;;;9.95;65.84
58771;BME280;44539;42.962;1.596;2023-04-07T08:35:21;97105.53;;;10.05;64.07
58771;BME280;44539;42.962;1.596;2023-04-07T08:37:46;97104.44;;;10.22;65.41
58771;BME280;44539;42.962;1.596;2023-04-07T08:40:13;97102.72;;;10.38;61.00
58771;BME280;44539;42.962;1.596;2023-04-07T08:42:45;97104.19;;;10.40;62.61
58771;BME280;44539;42.962;1.596;2023-04-07T08:45:12;97105.44;;;10.53;61.14
58771;BME280;44539;42.962;1.596;2023-04-07T08:47:39;97104.50;;;10.69;57.57
58771;BME280;44539;42.962;1.596;2023-04-07T08:50:07;97098.53;;;10.90;55.72
58771;BME280;44539;42.962;1.596;2023-04-07T08:55:02;97098.84;;;10.95;57.09
58771;BME280;44539;42.962;1.596;2023-04-07T08:57:31;97091.56;;;11.12;56.90
58771;BME280;44539;42.962;1.596;2023-04-07T08:59:59;97094.53;;;11.32;58.86
58771;BME280;44539;42.962;1.596;2023-04-07T09:02:31;97085.09;;;11.44;58.07
58771;BME280;44539;42.962;1.596;2023-04-07T09:04:57;97088.03;;;11.49;57.92
58771;BME280;44539;42.962;1.596;2023-04-07T09:07:23;97092.78;;;11.54;57.76
58771;BME280;44539;42.962;1.596;2023-04-07T09:09:48;97084.25;;;11.58;56.42
58771;BME280;44539;42.962;1.596;2023-04-07T09:12:13;97091.72;;;11.78;56.38
58771;BME280;44539;42.962;1.596;2023-04-07T09:14:39;97084.47;;;11.72;58.31
58771;BME280;44539;42.962;1.596;2023-04-07T09:17:04;97084.47;;;11.72;55.26
58771;BME280;44539;42.962;1.596;2023-04-07T09:19:30;97080.69;;;11.96;55.64
58771;BME280;44539;42.962;1.596;2023-04-07T09:21:56;97083.88;;;12.21;55.17
58771;BME280;44539;42.962;1.596;2023-04-07T09:24:23;97074.75;;;12.30;53.89
58771;BME280;44539;42.962;1.596;2023-04-07T09:26:49;97081.06;;;12.44;55.92
58771;BME280;44539;42.962;1.596;2023-04-07T09:29:18;97080.09;;;12.52;55.62
58771;BME280;44539;42.962;1.596;2023-04-07T09:31:48;97079.47;;;12.71;56.33
58771;BME280;44539;42.962;1.596;2023-04-07T09:34:29;97073.78;;;12.74;55.25
58771;BME280;44539;42.962;1.596;2023-04-07T09:36:56;97083.28;;;12.83;55.63
58771;BME280;44539;42.962;1.596;2023-04-07T09:39:22;97070.84;;;12.91;52.49
58771;BME280;44539;42.962;1.596;2023-04-07T09:41:48;97068.31;;;13.04;52.33
58771;BME280;44539;42.962;1.596;2023-04-07T09:44:13;97067.78;;;13.15;51.87
58771;BME280;44539;42.962;1.596;2023-04-07T09:46:58;97068.91;;;13.27;53.20
58771;BME280;44539;42.962;1.596;2023-04-07T09:49:25;97066.94;;;13.36;51.45
58771;BME280;44539;42.962;1.596;2023-04-07T09:52:03;97066.75;;;13.38;48.55
58771;BME280;44539;42.962;1.596;2023-04-07T09:54:38;97062.63;;;13.70;49.11
58771;BME280;44539;42.962;1.596;2023-04-07T09:57:05;97061.41;;;13.73;50.93
58771;BME280;44539;42.962;1.596;2023-04-07T09:59:32;97058.56;;;13.81;49.61
58771;BME280;44539;42.962;1.596;2023-04-07T10:01:58;97056.31;;;13.84;49.21
58771;BME280;44539;42.962;1.596;2023-04-07T10:04:24;97049.81;;;14.00;49.21
58771;BME280;44539;42.962;1.596;2023-04-07T10:06:52;97043.22;;;13.96;47.83
58771;BME280;44539;42.962;1.596;2023-04-07T10:09:19;97041.97;;;13.92;46.33
58771;BME280;44539;42.962;1.596;2023-04-07T10:11:45;97045.97;;;14.16;46.20
58771;BME280;44539;42.962;1.596;2023-04-07T10:14:11;97045.41;;;14.27;44.83
58771;BME280;44539;42.962;1.596;2023-04-07T10:16:37;97039.91;;;14.49;46.54
58771;BME280;44539;42.962;1.596;2023-04-07T10:19:03;97035.41;;;14.63;45.89
58771;BME280;44539;42.962;1.596;2023-04-07T10:21:31;97034.63;;;14.82;43.25
58771;BME280;44539;42.962;1.596;2023-04-07T10:26:53;97036.88;;;15.12;43.75
58771;BME280;44539;42.962;1.596;2023-04-07T10:29:21;97032.97;;;15.15;42.49
58771;BME280;44539;42.962;1.596;2023-04-07T10:31:49;97022.47;;;15.26;41.84
58771;BME280;44539;42.962;1.596;2023-04-07T10:34:15;97023.88;;;15.36;41.41
58771;BME280;44539;42.962;1.596;2023-04-07T10:37:07;97020.63;;;15.14;41.75
58771;BME280;44539;42.962;1.596;2023-04-07T10:39:32;97020.44;;;15.15;42.84
58771;BME280;44539;42.962;1.596;2023-04-07T10:42:00;97016.91;;;15.28;42.76
58771;BME280;44539;42.962;1.596;2023-04-07T10:47:04;97003.75;;;15.13;40.60
58771;BME280;44539;42.962;1.596;2023-04-07T10:49:32;97004.16;;;15.30;43.90
58771;BME280;44539;42.962;1.596;2023-04-07T10:54:35;96990.50;;;15.58;42.53
58771;BME280;44539;42.962;1.596;2023-04-07T10:57:12;96982.84;;;15.68;39.70
58771;BME280;44539;42.962;1.596;2023-04-07T10:59:40;96981.16;;;15.81;42.39
58771;BME280;44539;42.962;1.596;2023-04-07T11:04:43;96975.50;;;16.02;42.18
58771;BME280;44539;42.962;1.596;2023-04-07T11:07:10;96973.00;;;15.56;40.71
58771;BME280;44539;42.962;1.596;2023-04-07T11:09:36;96974.47;;;15.38;41.89
58771;BME280;44539;42.962;1.596;2023-04-07T11:12:01;96973.13;;;15.81;40.81
58771;BME280;44539;42.962;1.596;2023-04-07T11:14:31;96966.78;;;16.13;40.82
58771;BME280;44539;42.962;1.596;2023-04-07T11:16:58;96959.97;;;16.49;40.63
58771;BME280;44539;42.962;1.596;2023-04-07T11:19:23;96970.88;;;16.80;40.26
58771;BME280;44539;42.962;1.596;2023-04-07T11:21:49;96963.47;;;16.75;39.45
58771;BME280;44539;42.962;1.596;2023-04-07T11:24:34;96966.34;;;16.48;42.41
58771;BME280;44539;42.962;1.596;2023-04-07T11:27:02;96962.66;;;16.18;42.15
58771;BME280;44539;42.962;1.596;2023-04-07T11:29:32;96959.97;;;16.49;41.18
58771;BME280;44539;42.962;1.596;2023-04-07T11:31:59;96955.38;;;16.25;40.65
58771;BME280;44539;42.962;1.596;2023-04-07T11:34:30;96942.56;;;16.59;40.72
58771;BME280;44539;42.962;1.596;2023-04-07T11:36:56;96949.09;;;16.38;40.69
58771;BME280;44539;42.962;1.596;2023-04-07T11:39:25;96955.13;;;16.90;38.91
58771;BME280;44539;42.962;1.596;2023-04-07T11:41:55;96942.19;;;17.05;38.80
58771;BME280;44539;42.962;1.596;2023-04-07T11:44:21;96936.97;;;17.10;40.53
58771;BME280;44539;42.962;1.596;2023-04-07T11:46:57;96936.16;;;17.47;39.02
58771;BME280;44539;42.962;1.596;2023-04-07T11:49:24;96922.53;;;17.48;39.20
58771;BME280;44539;42.962;1.596;2023-04-07T11:52:00;96941.56;;;17.77;40.64
58771;BME280;44539;42.962;1.596;2023-04-07T11:54:37;96938.03;;;17.83;37.81
58771;BME280;44539;42.962;1.596;2023-04-07T11:57:02;96943.63;;;17.45;38.65
58771;BME280;44539;42.962;1.596;2023-04-07T11:59:28;96939.31;;;17.44;40.23
58771;BME280;44539;42.962;1.596;2023-04-07T12:01:53;96928.41;;;17.57;40.31
58771;BME280;44539;42.962;1.596;2023-04-07T12:04:18;96935.19;;;17.78;39.10
58771;BME280;44539;42.962;1.596;2023-04-07T12:06:46;96930.50;;;17.55;38.87
58771;BME280;44539;42.962;1.596;2023-04-07T12:09:32;96927.06;;;17.29;40.42
58771;BME280;44539;42.962;1.596;2023-04-07T12:12:01;96925.84;;;17.62;40.20
58771;BME280;44539;42.962;1.596;2023-04-07T12:14:27;96923.19;;;17.44;39.72
58771;BME280;44539;42.962;1.596;2023-04-07T12:16:53;96917.06;;;17.73;39.92
58771;BME280;44539;42.962;1.596;2023-04-07T12:19:21;96920.03;;;17.65;39.90
58771;BME280;44539;42.962;1.596;2023-04-07T12:21:48;96921.25;;;17.51;40.38
58771;BME280;44539;42.962;1.596;2023-04-07T12:24:13;96925.63;;;17.45;40.35
58771;BME280;44539;42.962;1.596;2023-04-07T12:26:38;96918.25;;;17.78;40.20
58771;BME280;44539;42.962;1.596;2023-04-07T12:29:04;96912.44;;;17.62;40.36
58771;BME280;44539;42.962;1.596;2023-04-07T12:31:30;96911.91;;;17.53;39.85
58771;BME280;44539;42.962;1.596;2023-04-07T12:33:57;96907.94;;;17.74;41.10
58771;BME280;44539;42.962;1.596;2023-04-07T12:36:23;96916.31;;;18.15;39.11
58771;BME280;44539;42.962;1.596;2023-04-07T12:38:48;96913.94;;;18.07;39.44
58771;BME280;44539;42.962;1.596;2023-04-07T12:41:14;96913.75;;;17.90;39.46
58771;BME280;44539;42.962;1.596;2023-04-07T12:43:39;96910.44;;;18.06;38.99
58771;BME280;44539;42.962;1.596;2023-04-07T12:46:05;96901.94;;;18.21;38.94
58771;BME280;44539;42.962;1.596;2023-04-07T12:48:30;96899.66;;;17.94;40.08
58771;BME280;44539;42.962;1.596;2023-04-07T12:50:57;96912.16;;;18.01;41.54
58771;BME280;44539;42.962;1.596;2023-04-07T12:53:22;96909.22;;;18.32;39.48
58771;BME280;44539;42.962;1.596;2023-04-07T12:55:47;96907.47;;;17.96;38.80
58771;BME280;44539;42.962;1.596;2023-04-07T12:58:13;96900.53;;;18.19;37.64
58771;BME280;44539;42.962;1.596;2023-04-07T13:00:38;96903.28;;;18.42;37.47
58771;BME280;44539;42.962;1.596;2023-04-07T13:03:05;96902.59;;;18.70;38.62
58771;BME280;44539;42.962;1.596;2023-04-07T13:05:31;96897.81;;;18.61;37.19
58771;BME280;44539;42.962;1.596;2023-04-07T13:07:56;96897.13;;;19.01;39.11
58771;BME280;44539;42.962;1.596;2023-04-07T13:10:22;96893.50;;;19.07;38.34
58771;BME280;44539;42.962;1.596;2023-04-07T13:12:47;96890.00;;;19.06;38.32
58771;BME280;44539;42.962;1.596;2023-04-07T13:15:13;96885.63;;;18.46;37.47
58771;BME280;44539;42.962;1.596;2023-04-07T13:17:38;96879.91;;;18.01;37.73
58771;BME280;44539;42.962;1.596;2023-04-07T13:20:05;96876.97;;;18.44;39.19
58771;BME280;44539;42.962;1.596;2023-04-07T13:22:31;96876.03;;;18.39;38.84
58771;BME280;44539;42.962;1.596;2023-04-07T13:24:56;96868.44;;;18.71;37.80
58771;BME280;44539;42.962;1.596;2023-04-07T13:27:22;96865.28;;;19.09;39.00
58771;BME280;44539;42.962;1.596;2023-04-07T13:29:47;96864.97;;;19.06;38.61
58771;BME280;44539;42.962;1.596;2023-04-07T13:32:13;96872.91;;;19.12;36.33
58771;BME280;44539;42.962;1.596;2023-04-07T13:34:39;96869.59;;;18.51;36.13
58771;BME280;44539;42.962;1.596;2023-04-07T13:37:05;96862.63;;;18.74;36.53
58771;BME280;44539;42.962;1.596;2023-04-07T13:39:31;96861.66;;;18.68;38.38
58771;BME280;44539;42.962;1.596;2023-04-07T13:41:57;96851.13;;;18.67;36.71
58771;BME280;44539;42.962;1.596;2023-04-07T13:44:24;96853.06;;;18.78;37.31
58771;BME280;44539;42.962;1.596;2023-04-07T13:46:50;96837.78;;;19.07;38.38
58771;BME280;44539;42.962;1.596;2023-04-07T13:49:16;96841.59;;;19.35;35.62
58771;BME280;44539;42.962;1.596;2023-04-07T13:51:42;96836.03;;;19.25;35.81
58771;BME280;44539;42.962;1.596;2023-04-07T13:54:07;96842.22;;;19.25;36.49
58771;BME280;44539;42.962;1.596;2023-04-07T13:56:33;96833.03;;;18.97;38.10
58771;BME280;44539;42.962;1.596;2023-04-07T13:59:00;96828.03;;;19.30;36.59
58771;BME280;44539;42.962;1.596;2023-04-07T14:01:25;96827.50;;;18.92;39.02
58771;BME280;44539;42.962;1.596;2023-04-07T14:03:51;96817.69;;;19.10;36.77
58771;BME280;44539;42.962;1.596;2023-04-07T14:06:17;96814.00;;;19.56;37.23
58771;BME280;44539;42.962;1.596;2023-04-07T14:08:46;96810.25;;;19.86;36.21
58771;BME280;44539;42.962;1.596;2023-04-07T14:11:15;96811.47;;;19.78;34.94
58771;BME280;44539;42.962;1.596;2023-04-07T14:13:41;96809.81;;;19.49;35.85
58771;BME280;44539;42.962;1.596;2023-04-07T14:16:06;96807.13;;;19.77;36.41
58771;BME280;44539;42.962;1.596;2023-04-07T14:18:32;96809.31;;;20.09;36.54
58771;BME280;44539;42.962;1.596;2023-04-07T14:20:57;96803.44;;;20.12;35.39
58771;BME280;44539;42.962;1.596;2023-04-07T14:23:24;96806.09;;;19.78;35.42
58771;BME280;44539;42.962;1.596;2023-04-07T14:25:50;96805.22;;;20.24;36.84
58771;BME280;44539;42.962;1.596;2023-04-07T14:28:15;96796.16;;;19.96;35.19
58771;BME280;44539;42.962;1.596;2023-04-07T14:30:41;96795.06;;;20.14;35.67
58771;BME280;44539;42.962;1.596;2023-04-07T14:33:06;96790.97;;;20.79;34.18
58771;BME280;44539;42.962;1.596;2023-04-07T14:35:32;96786.78;;;21.10;34.86
58771;BME280;44539;42.962;1.596;2023-04-07T14:38:01;96789.22;;;21.12;34.96
58771;BME280;44539;42.962;1.596;2023-04-07T14:40:26;96780.72;;;20.81;33.26
58771;BME280;44539;42.962;1.596;2023-04-07T14:42:52;96780.22;;;21.50;33.82
58771;BME280;44539;42.962;1.596;2023-04-07T14:45:17;96771.75;;;21.41;35.48
58771;BME280;44539;42.962;1.596;2023-04-07T14:47:43;96774.19;;;20.77;36.20
58771;BME280;44539;42.962;1.596;2023-04-07T14:50:08;96774.63;;;21.57;33.44
58771;BME280;44539;42.962;1.596;2023-04-07T14:52:34;96770.56;;;20.49;33.99
58771;BME280;44539;42.962;1.596;2023-04-07T14:54:59;96771.34;;;21.55;36.86
58771;BME280;44539;42.962;1.596;2023-04-07T14:57:25;96767.06;;;21.86;33.33
58771;BME280;44539;42.962;1.596;2023-04-07T14:59:51;96779.28;;;22.58;34.68
58771;BME280;44539;42.962;1.596;2023-04-07T15:02:16;96770.59;;;22.56;32.78
58771;BME280;44539;42.962;1.596;2023-04-07T15:04:41;96760.66;;;23.20;30.32
58771;BME280;44539;42.962;1.596;2023-04-07T15:07:07;96770.53;;;22.46;31.37
58771;BME280;44539;42.962;1.596;2023-04-07T15:09:32;96770.59;;;22.56;31.61
58771;BME280;44539;42.962;1.596;2023-04-07T15:11:58;96765.78;;;21.61;32.38
58771;BME280;44539;42.962;1.596;2023-04-07T15:14:24;96764.22;;;21.71;32.88
58771;BME280;44539;42.962;1.596;2023-04-07T15:16:50;96765.59;;;22.38;33.43
58771;BME280;44539;42.962;1.596;2023-04-07T15:19:15;96763.47;;;22.93;34.61
58771;BME280;44539;42.962;1.596;2023-04-07T15:21:41;96762.31;;;23.36;31.87
58771;BME280;44539;42.962;1.596;2023-04-07T15:24:06;96754.59;;;22.50;30.69
58771;BME280;44539;42.962;1.596;2023-04-07T15:26:32;96761.59;;;22.93;33.15
58771;BME280;44539;42.962;1.596;2023-04-07T15:28:57;96761.50;;;23.36;32.68
58771;BME280;44539;42.962;1.596;2023-04-07T15:31:23;96752.13;;;23.84;32.03
58771;BME280;44539;42.962;1.596;2023-04-07T15:33:51;96743.22;;;23.94;30.46
58771;BME280;44539;42.962;1.596;2023-04-07T15:36:17;96740.22;;;23.91;31.20
58771;BME280;44539;42.962;1.596;2023-04-07T15:38:42;96751.38;;;23.06;29.95
58771;BME280;44539;42.962;1.596;2023-04-07T15:41:08;96760.78;;;22.98;30.20
58771;BME280;44539;42.962;1.596;2023-04-07T15:43:34;96767.31;;;22.49;30.86
58771;BME280;44539;42.962;1.596;2023-04-07T15:45:59;96768.34;;;22.43;31.21
58771;BME280;44539;42.962;1.596;2023-04-07T15:48:24;96763.22;;;22.14;31.89
58771;BME280;44539;42.962;1.596;2023-04-07T15:50:52;96764.28;;;22.83;31.54
58771;BME280;44539;42.962;1.596;2023-04-07T15:53:17;96758.31;;;23.59;30.28
58771;BME280;44539;42.962;1.596;2023-04-07T15:55:43;96759.91;;;23.55;31.30
58771;BME280;44539;42.962;1.596;2023-04-07T15:58:08;96756.50;;;24.11;30.02
58771;BME280;44539;42.962;1.596;2023-04-07T16:00:36;96762.72;;;24.32;31.77
58771;BME280;44539;42.962;1.596;2023-04-07T16:03:02;96770.09;;;23.12;30.55
58771;BME280;44539;42.962;1.596;2023-04-07T16:05:28;96763.19;;;23.57;29.54
58771;BME280;44539;42.962;1.596;2023-04-07T16:07:54;96758.91;;;23.77;29.99
58771;BME280;44539;42.962;1.596;2023-04-07T16:10:19;96759.47;;;24.15;30.00
58771;BME280;44539;42.962;1.596;2023-04-07T16:12:45;96767.03;;;24.38;28.34
58771;BME280;44539;42.962;1.596;2023-04-07T16:15:11;96768.09;;;24.78;27.81
58771;BME280;44539;42.962;1.596;2023-04-07T16:17:37;96760.00;;;23.81;29.92
58771;BME280;44539;42.962;1.596;2023-04-07T16:20:09;96761.88;;;24.57;30.64
58771;BME280;44539;42.962;1.596;2023-04-07T16:22:42;96762.44;;;24.54;27.61
